Time;durP1;ratioP1;P1;durP2;ratioP2;P2;SDS_P1;SDS_P2;PMS_P1;PMS_P2;Temp;Humidity;BMP_temperature;BMP_pressure;BME280_temperature;BME280_humidity;BME280_pressure;Samples;Min_cycle;Max_cycle;Signal;HPM_P1;HPM_P2
2023/07/19 00:01:57;;;;;;;;;3.00;3.00;;;;;24.47;40.73;101021.81;5080356;28;45419;-71
2023/07/19 00:04:22;;;;;;;;;3.00;3.00;;;;;24.42;40.70;101017.06;5079808;28;45339;-72
2023/07/19 00:06:47;;;;;;;;;2.33;1.33;;;;;24.52;40.66;101036.38;5079301;27;46500;-74
2023/07/19 00:09:12;;;;;;;;;2.00;2.00;;;;;24.46;40.04;101023.72;5079325;27;45458;-72
2023/07/19 00:11:38;;;;;;;;;4.33;3.33;;;;;24.48;40.73;101040.63;5078961;27;56047;-72
2023/07/19 00:14:05;;;;;;;;;3.00;2.00;;;;;24.44;40.43;101036.72;5079720;28;45432;-72
2023/07/19 00:16:31;;;;;;;;;3.00;3.00;;;;;24.42;40.55;101035.25;5079573;27;46694;-70
2023/07/19 00:18:57;;;;;;;;;3.00;2.33;;;;;24.12;40.90;101011.53;5079358;27;45578;-75
2023/07/19 00:21:22;;;;;;;;;3.00;2.00;;;;;24.28;41.28;101042.72;5061397;28;45322;-72
2023/07/19 00:23:47;;;;;;;;;2.67;2.67;;;;;24.23;40.77;101026.28;5078618;27;45374;-72
2023/07/19 00:26:13;;;;;;;;;2.67;2.67;;;;;24.26;41.15;101039.41;5078838;28;45975;-71
2023/07/19 00:28:39;;;;;;;;;3.00;3.00;;;;;24.22;41.02;101022.69;5079745;27;45561;-71
2023/07/19 00:31:04;;;;;;;;;1.67;1.00;;;;;24.15;41.04;101021.13;5079726;27;45417;-71
2023/07/19 00:33:30;;;;;;;;;3.00;3.00;;;;;24.08;40.80;101029.34;5079621;27;45461;-72
2023/07/19 00:35:55;;;;;;;;;2.00;2.00;;;;;24.10;41.49;101040.81;5077741;28;46868;-71
2023/07/19 00:38:21;;;;;;;;;3.33;2.33;;;;;23.98;40.59;101015.47;5060655;28;45376;-73
2023/07/19 00:40:47;;;;;;;;;4.67;3.33;;;;;23.95;40.94;101022.19;5078608;28;45417;-71
2023/07/19 00:43:13;;;;;;;;;3.67;3.00;;;;;23.96;41.38;101034.69;5079305;28;45422;-70
2023/07/19 00:45:45;;;;;;;;;2.00;2.00;;;;;23.94;41.22;101041.41;5078426;28;57153;-69
2023/07/19 00:48:11;;;;;;;;;2.00;2.00;;;;;23.70;41.33;101002.41;5078633;27;45597;-73
2023/07/19 00:50:36;;;;;;;;;2.67;1.67;;;;;23.94;41.73;101036.81;5078866;27;46546;-72
2023/07/19 00:53:02;;;;;;;;;2.00;2.00;;;;;23.88;41.51;101032.28;5061043;28;45460;-72
2023/07/19 00:55:27;;;;;;;;;3.00;2.00;;;;;23.90;41.80;101035.59;5078394;28;45834;-71
2023/07/19 00:57:52;;;;;;;;;3.00;3.00;;;;;23.86;41.55;101039.84;5079260;28;45510;-71
2023/07/19 01:00:19;;;;;;;;;3.00;3.00;;;;;23.75;42.04;101029.69;5078678;27;48561;-71
2023/07/19 01:02:45;;;;;;;;;3.00;3.00;;;;;23.50;42.18;100996.28;5060572;28;45345;-72
2023/07/19 01:05:10;;;;;;;;;2.00;2.00;;;;;23.48;41.91;100995.69;5078393;27;46550;-69
2023/07/19 01:07:37;;;;;;;;;1.67;1.67;;;;;23.70;41.83;101032.25;5078667;27;45317;-70
2023/07/19 01:10:03;;;;;;;;;2.00;2.00;;;;;23.43;41.70;100990.94;5078663;28;45229;-71
2023/07/19 01:12:28;;;;;;;;;2.67;2.67;;;;;23.74;41.97;101030.75;5078505;28;45581;-70
2023/07/19 01:14:54;;;;;;;;;2.00;2.00;;;;;23.76;41.56;101034.06;5078121;27;45809;-71
2023/07/19 01:17:19;;;;;;;;;5.00;1.67;;;;;23.43;41.40;100984.69;5078435;27;45458;-71
2023/07/19 01:19:44;;;;;;;;;2.67;2.00;;;;;23.73;41.24;101029.09;5060443;28;45345;-71
2023/07/19 01:22:11;;;;;;;;;1.33;1.33;;;;;23.67;41.60;101030.81;5078580;28;45225;-69
2023/07/19 01:24:39;;;;;;;;;2.00;2.00;;;;;23.63;41.48;101024.19;5078671;28;46097;-71
2023/07/19 01:27:05;;;;;;;;;2.33;2.33;;;;;23.70;40.96;101032.25;5077994;27;45348;-71
2023/07/19 01:29:30;;;;;;;;;2.00;1.67;;;;;23.70;41.05;101034.97;5059899;28;45507;-70
2023/07/19 01:31:55;;;;;;;;;2.00;2.00;;;;;23.64;41.48;101020.41;5057094;28;45459;-72
2023/07/19 01:34:21;;;;;;;;;4.33;3.00;;;;;23.75;41.37;101037.84;5058032;28;46759;-70
2023/07/19 01:36:46;;;;;;;;;2.00;2.00;;;;;23.75;41.11;101032.41;5076084;27;45516;-70
2023/07/19 01:39:11;;;;;;;;;3.33;2.67;;;;;23.77;41.25;101041.16;5078024;28;45206;-71
2023/07/19 01:41:39;;;;;;;;;1.33;1.33;;;;;23.70;41.20;101018.69;5076331;28;54110;-71
2023/07/19 01:44:05;;;;;;;;;2.67;2.00;;;;;23.65;41.01;101027.50;5077340;28;46114;-72
2023/07/19 01:46:30;;;;;;;;;2.00;2.00;;;;;23.69;41.43;101038.75;5077422;28;45436;-72
2023/07/19 01:48:55;;;;;;;;;4.00;2.00;;;;;23.68;41.05;101045.22;5059792;28;45332;-71
2023/07/19 01:51:20;;;;;;;;;2.67;2.00;;;;;23.34;41.18;100994.97;5078427;28;45236;-70
2023/07/19 01:53:46;;;;;;;;;3.67;3.67;;;;;23.61;41.16;101047.16;5075490;28;64319;-69
2023/07/19 01:56:11;;;;;;;;;2.00;2.00;;;;;23.57;41.79;101051.38;5074928;28;53208;-72
2023/07/19 01:58:36;;;;;;;;;4.33;3.00;;;;;23.55;41.67;101053.44;5075584;28;45459;-70
2023/07/19 02:01:02;;;;;;;;;2.00;1.33;;;;;23.52;42.05;101062.88;5076725;28;45493;-69
2023/07/19 02:03:27;;;;;;;;;2.00;2.00;;;;;23.54;41.86;101058.03;5058403;28;46847;-70
2023/07/19 02:05:59;;;;;;;;;2.67;2.67;;;;;23.50;41.62;101050.56;5076553;28;45400;-69
2023/07/19 02:08:25;;;;;;;;;4.00;3.00;;;;;23.45;41.86;101042.28;5077401;28;45411;-69
2023/07/19 02:10:50;;;;;;;;;3.00;3.00;;;;;23.60;41.33;101061.78;5077546;28;45355;-71
2023/07/19 02:13:16;;;;;;;;;1.00;1.00;;;;;23.54;41.78;101057.22;5077608;28;45732;-70
2023/07/19 02:15:41;;;;;;;;;2.67;2.67;;;;;23.57;41.70;101067.66;5077431;27;45445;-69
2023/07/19 02:18:07;;;;;;;;;1.67;1.67;;;;;23.56;41.63;101069.53;5059407;28;45467;-71
2023/07/19 02:20:32;;;;;;;;;2.00;2.00;;;;;23.54;41.59;101057.22;5078451;28;45482;-69
2023/07/19 02:22:57;;;;;;;;;1.00;1.00;;;;;23.31;42.12;101017.94;5077210;27;51692;-71
2023/07/19 02:25:22;;;;;;;;;2.00;2.00;;;;;23.58;41.46;101064.72;5076994;28;59783;-69
2023/07/19 02:27:48;;;;;;;;;2.00;2.00;;;;;23.56;41.70;101066.81;5077411;28;45436;-70
2023/07/19 02:30:13;;;;;;;;;3.00;3.00;;;;;23.53;41.25;101072.66;5077673;28;45380;-71
2023/07/19 02:32:38;;;;;;;;;1.00;1.00;;;;;23.22;41.42;101019.25;5077379;28;46138;-71
2023/07/19 02:35:04;;;;;;;;;1.33;1.33;;;;;23.19;41.79;101006.13;5077171;28;45537;-71
2023/07/19 02:37:29;;;;;;;;;1.33;1.33;;;;;23.47;41.59;101053.72;5077541;27;45377;-72
2023/07/19 02:39:55;;;;;;;;;2.33;1.67;;;;;23.35;41.57;101034.63;5077685;28;45398;-71
2023/07/19 02:42:20;;;;;;;;;3.00;1.67;;;;;23.13;42.04;101007.03;5076785;28;46568;-72
2023/07/19 02:44:45;;;;;;;;;3.00;1.33;;;;;23.48;42.08;101066.25;5058839;28;45400;-73
2023/07/19 02:47:12;;;;;;;;;5.33;3.00;;;;;23.47;42.22;101061.88;5059196;28;45308;-71
2023/07/19 02:49:39;;;;;;;;;2.00;2.00;;;;;23.45;42.45;101066.69;5059294;28;45389;-73
2023/07/19 02:52:05;;;;;;;;;2.33;2.33;;;;;23.17;42.22;101040.78;5076847;28;45489;-71
2023/07/19 02:54:30;;;;;;;;;2.00;2.00;;;;;23.33;42.50;101074.69;5077123;28;45573;-71
2023/07/19 02:56:55;;;;;;;;;3.33;2.00;;;;;23.00;42.74;101028.81;5076446;28;45396;-70
2023/07/19 02:59:20;;;;;;;;;3.00;2.00;;;;;23.15;42.87;101059.16;5061253;28;45229;-72
2023/07/19 03:01:46;;;;;;;;;3.33;2.67;;;;;23.07;43.30;101067.59;5080546;27;46180;-70
2023/07/19 03:04:12;;;;;;;;;2.67;2.67;;;;;23.11;43.67;101082.38;5080607;28;45435;-71
2023/07/19 03:06:38;;;;;;;;;2.00;2.00;;;;;23.07;43.32;101086.56;5080805;28;46535;-73
2023/07/19 03:09:03;;;;;;;;;4.00;4.00;;;;;23.05;44.19;101094.94;5080761;27;45482;-70
2023/07/19 03:11:28;;;;;;;;;3.67;3.67;;;;;22.97;44.23;101089.72;5078777;28;47966;-70
2023/07/19 03:13:54;;;;;;;;;3.00;3.00;;;;;22.95;44.52;101091.84;5080263;27;45416;-71
2023/07/19 03:16:19;;;;;;;;;2.00;2.00;;;;;22.62;44.37;101032.31;5080315;27;47075;-69
2023/07/19 03:18:44;;;;;;;;;6.33;6.33;;;;;23.01;44.41;101100.97;5080798;27;45265;-69
2023/07/19 03:21:10;;;;;;;;;2.67;2.33;;;;;22.97;43.77;101084.31;5080922;27;45999;-71
2023/07/19 03:23:35;;;;;;;;;3.67;2.00;;;;;23.02;44.27;101102.63;5080841;27;45248;-69
2023/07/19 03:26:00;;;;;;;;;4.67;2.67;;;;;22.92;44.10;101086.03;5078679;28;45297;-69
2023/07/19 03:28:28;;;;;;;;;1.67;1.67;;;;;22.91;44.07;101092.50;5080564;28;45478;-69
2023/07/19 03:30:54;;;;;;;;;2.33;2.33;;;;;22.42;44.61;101045.13;5080120;28;46325;-69
2023/07/19 03:33:24;;;;;;;;;2.33;1.33;;;;;22.69;44.49;101106.31;5080158;28;45286;-70
2023/07/19 03:35:49;;;;;;;;;2.00;2.00;;;;;22.63;44.25;101092.81;5061703;28;45288;-70
2023/07/19 03:38:16;;;;;;;;;2.67;2.67;;;;;22.70;44.56;101116.13;5080400;27;45453;-72
2023/07/19 03:40:42;;;;;;;;;2.67;2.67;;;;;22.52;44.07;101115.97;5079553;28;45760;-71
2023/07/19 03:43:07;;;;;;;;;2.67;2.00;;;;;22.39;44.40;101124.13;5061775;28;46668;-69
2023/07/19 03:45:33;;;;;;;;;1.00;1.00;;;;;22.00;44.47;101060.03;5079932;27;45453;-71
2023/07/19 03:47:58;;;;;;;;;3.33;2.00;;;;;22.12;44.58;101110.66;5080017;28;45498;-70
2023/07/19 03:50:24;;;;;;;;;2.33;2.33;;;;;22.29;44.76;101135.41;5079625;28;45867;-70
2023/07/19 03:52:50;;;;;;;;;21.00;21.00;;;;;21.83;44.79;101065.91;5061344;28;45405;-70
2023/07/19 03:55:15;;;;;;;;;3.33;3.33;;;;;22.26;44.93;101129.59;5079753;28;45431;-72
2023/07/19 03:57:40;;;;;;;;;3.00;3.00;;;;;22.35;44.19;101145.41;5079644;28;45501;-73
2023/07/19 04:00:06;;;;;;;;;1.67;1.33;;;;;22.34;43.77;101138.31;5061001;28;55235;-70
2023/07/19 04:02:32;;;;;;;;;2.00;2.00;;;;;22.27;43.85;101136.69;5061161;28;46374;-70
2023/07/19 04:04:57;;;;;;;;;2.00;1.67;;;;;22.27;43.62;101137.50;5079703;28;45323;-71
2023/07/19 04:07:23;;;;;;;;;4.33;3.00;;;;;22.19;42.68;101131.47;5079709;28;45340;-72
2023/07/19 04:09:48;;;;;;;;;2.00;1.67;;;;;22.13;42.75;101128.56;5078398;28;46535;-71
2023/07/19 04:12:13;;;;;;;;;3.00;0.67;;;;;21.95;42.44;101092.31;5079136;28;45263;-71
2023/07/19 04:14:39;;;;;;;;;1.00;1.00;;;;;22.19;42.17;101140.41;5079177;28;45738;-70
2023/07/19 04:17:04;;;;;;;;;1.00;1.00;;;;;22.25;41.77;101163.16;5079502;28;45366;-73
2023/07/19 04:19:30;;;;;;;;;3.00;3.00;;;;;22.24;41.87;101169.59;5082774;27;47714;-71
2023/07/19 04:21:55;;;;;;;;;1.00;1.00;;;;;22.17;42.00;101165.00;5082497;27;45417;-73
2023/07/19 04:24:20;;;;;;;;;0.67;0.67;;;;;22.11;41.15;101165.84;5079785;28;45307;-73
2023/07/19 04:26:46;;;;;;;;;2.00;2.00;;;;;21.72;41.77;101122.53;5061010;28;45459;-71
2023/07/19 04:29:11;;;;;;;;;0.33;0.00;;;;;22.08;41.79;101166.28;5061745;28;48747;-71
2023/07/19 04:31:36;;;;;;;;;0.00;0.00;;;;;22.08;41.70;101162.75;5062640;28;45341;-71
2023/07/19 04:34:02;;;;;;;;;1.00;1.00;;;;;22.04;42.28;101164.19;5079889;28;45471;-71
2023/07/19 04:36:27;;;;;;;;;1.33;1.33;;;;;22.03;42.69;101178.75;5079455;28;45412;-71
2023/07/19 04:38:52;;;;;;;;;2.00;2.00;;;;;21.79;43.09;101145.81;5079331;28;46638;-72
2023/07/19 04:41:18;;;;;;;;;2.00;2.00;;;;;21.92;43.14;101163.97;5078617;28;45225;-71
2023/07/19 04:43:43;;;;;;;;;1.00;1.00;;;;;22.01;43.46;101167.28;5078563;28;55408;-71
2023/07/19 04:46:08;;;;;;;;;4.00;3.00;;;;;22.03;43.64;101163.34;5060911;28;45491;-74
2023/07/19 04:48:34;;;;;;;;;2.00;2.00;;;;;21.98;43.30;101148.75;5078191;28;64872;-73
2023/07/19 04:51:00;;;;;;;;;2.00;2.00;;;;;21.91;43.72;101137.94;5078556;28;45482;-73
2023/07/19 04:53:25;;;;;;;;;1.33;0.00;;;;;21.28;43.86;101036.56;5078816;28;45569;-72
2023/07/19 04:55:52;;;;;;;;;4.33;2.00;;;;;22.00;43.94;101149.38;5060340;28;45486;-71
2023/07/19 04:58:18;;;;;;;;;1.33;1.33;;;;;22.19;44.37;101177.50;5078159;28;46774;-73
2023/07/19 05:00:44;;;;;;;;;2.67;1.67;;;;;21.92;44.57;101128.75;5060259;28;45415;-70
2023/07/19 05:03:10;;;;;;;;;4.50;2.50;;;;;22.21;44.84;101192.50;5078486;28;45320;-70
2023/07/19 05:05:35;;;;;;;;;4.33;3.33;;;;;22.15;45.26;101177.94;5060735;28;45444;-71
2023/07/19 05:08:04;;;;;;;;;4.00;2.67;;;;;22.22;44.88;101179.78;5078320;28;45742;-72
2023/07/19 05:10:29;;;;;;;;;1.33;1.33;;;;;22.17;44.38;101185.84;5059935;28;46072;-72
2023/07/19 05:12:55;;;;;;;;;1.33;1.33;;;;;22.23;44.61;101189.63;5078444;28;45393;-70
2023/07/19 05:15:20;;;;;;;;;2.33;2.33;;;;;21.95;44.40;101136.47;5060057;28;45502;-71
2023/07/19 05:17:45;;;;;;;;;2.00;1.00;;;;;22.17;43.94;101181.25;5078231;28;46242;-72
2023/07/19 05:20:11;;;;;;;;;1.00;1.00;;;;;21.90;44.27;101146.25;5078172;28;45175;-72
2023/07/19 05:22:36;;;;;;;;;1.00;1.00;;;;;22.14;44.44;101189.81;5059538;28;45455;-69
2023/07/19 05:25:03;;;;;;;;;1.33;1.33;;;;;22.09;44.54;101189.59;5078256;28;45538;-70
2023/07/19 05:27:28;;;;;;;;;2.00;2.00;;;;;21.90;44.86;101168.75;5077835;28;45545;-71
2023/07/19 05:29:54;;;;;;;;;3.33;3.00;;;;;21.95;44.93;101203.31;5077799;28;45522;-73
2023/07/19 05:32:19;;;;;;;;;1.00;1.00;;;;;21.85;45.26;101182.09;5078688;28;45245;-71
2023/07/19 05:34:44;;;;;;;;;3.00;1.00;;;;;21.78;45.00;101176.66;5060188;28;45518;-71
2023/07/19 05:37:10;;;;;;;;;3.67;2.67;;;;;21.71;45.22;101143.34;5077700;28;46534;-72
2023/07/19 05:39:35;;;;;;;;;1.67;1.67;;;;;22.13;44.38;101203.56;5060064;28;45739;-71
2023/07/19 05:42:01;;;;;;;;;3.00;2.33;;;;;22.23;44.08;101206.69;5077724;28;45284;-72
2023/07/19 05:44:27;;;;;;;;;2.00;2.00;;;;;21.85;44.43;101123.38;5078510;28;45400;-73
2023/07/19 05:46:53;;;;;;;;;2.67;1.33;;;;;22.26;43.65;101184.59;5077969;28;45783;-71
2023/07/19 05:49:18;;;;;;;;;3.00;1.00;;;;;22.39;43.54;101203.53;5077654;28;45624;-70
2023/07/19 05:51:44;;;;;;;;;2.00;2.00;;;;;22.32;43.48;101189.16;5078077;28;45639;-71
2023/07/19 05:54:10;;;;;;;;;2.00;2.00;;;;;22.38;43.42;101203.75;5077900;28;45281;-72
2023/07/19 05:56:36;;;;;;;;;1.00;1.00;;;;;22.36;43.60;101195.00;5076749;28;46497;-72
2023/07/19 05:59:01;;;;;;;;;2.00;2.00;;;;;22.43;43.94;101206.69;5059331;28;45288;-71
2023/07/19 06:01:26;;;;;;;;;3.67;2.33;;;;;22.41;43.36;101203.31;5077849;28;45525;-70
2023/07/19 06:03:51;;;;;;;;;2.67;2.67;;;;;22.36;43.35;101198.53;5059611;28;45504;-73
2023/07/19 06:06:18;;;;;;;;;2.67;1.33;;;;;22.34;43.40;101186.25;5059243;28;46833;-73
2023/07/19 06:08:43;;;;;;;;;1.00;1.00;;;;;22.97;42.30;101209.03;5077603;28;45331;-73
2023/07/19 06:11:08;;;;;;;;;2.00;2.00;;;;;23.78;41.07;101222.00;5058775;28;45343;-72
2023/07/19 06:13:34;;;;;;;;;1.67;1.67;;;;;24.40;40.28;101193.09;5077552;28;45465;-70
2023/07/19 06:15:59;;;;;;;;;1.00;1.00;;;;;25.32;38.88;101228.50;5076924;28;45652;-72
2023/07/19 06:18:24;;;;;;;;;1.00;1.00;;;;;25.91;38.05;101211.31;5077289;28;45386;-73
2023/07/19 06:20:50;;;;;;;;;3.00;2.00;;;;;26.43;37.08;101202.50;5076814;28;55337;-71
2023/07/19 06:23:15;;;;;;;;;3.00;3.00;;;;;27.26;37.10;101234.91;5077173;28;45470;-70
2023/07/19 06:25:42;;;;;;;;;1.00;1.00;;;;;27.87;35.74;101209.56;5076979;28;45549;-72
2023/07/19 06:28:07;;;;;;;;;0.00;0.00;;;;;28.54;34.96;101227.88;5077445;28;45213;-72
2023/07/19 06:30:33;;;;;;;;;1.00;1.00;;;;;29.12;34.12;101220.19;5077217;28;45217;-72
2023/07/19 06:32:59;;;;;;;;;1.00;1.00;;;;;29.70;33.53;101211.25;5076844;28;45250;-71
2023/07/19 06:35:24;;;;;;;;;2.33;1.33;;;;;30.17;32.46;101189.47;5059247;28;45540;-75
2023/07/19 06:37:50;;;;;;;;;0.33;0.33;;;;;30.86;32.13;101216.00;5077440;28;45477;-73
2023/07/19 06:40:15;;;;;;;;;1.00;1.00;;;;;31.24;31.09;101222.22;5077307;28;45721;-72
2023/07/19 06:42:42;;;;;;;;;0.00;0.00;;;;;31.51;31.00;101208.25;5078159;28;45404;-73
2023/07/19 06:45:09;;;;;;;;;1.67;0.00;;;;;31.48;30.50;101151.91;5077372;28;46342;-72
2023/07/19 06:47:34;;;;;;;;;1.00;1.00;;;;;32.03;29.77;101216.28;5076941;28;45411;-73
2023/07/19 06:49:59;;;;;;;;;1.00;1.00;;;;;31.73;29.69;101099.72;5077275;28;45590;-72
2023/07/19 06:52:25;;;;;;;;;0.00;0.00;;;;;32.57;29.53;101210.19;5077169;28;45336;-73
2023/07/19 06:54:50;;;;;;;;;2.00;0.00;;;;;32.90;28.64;101209.56;5058779;28;48323;-72
2023/07/19 06:57:16;;;;;;;;;1.00;1.00;;;;;33.19;28.51;101195.91;5076484;28;45257;-72
2023/07/19 06:59:41;;;;;;;;;0.00;0.00;;;;;33.62;28.57;101221.00;5077010;28;45307;-73
2023/07/19 07:02:06;;;;;;;;;0.67;0.33;;;;;33.05;28.18;101086.63;5058798;28;45571;-72
2023/07/19 07:04:32;;;;;;;;;1.00;1.00;;;;;34.07;27.07;101205.25;5077251;28;46009;-70
2023/07/19 07:06:57;;;;;;;;;0.00;0.00;;;;;34.23;27.14;101183.84;5058603;28;46497;-71
2023/07/19 07:09:23;;;;;;;;;2.00;0.67;;;;;34.43;26.85;101189.16;5077545;28;45554;-71
2023/07/19 07:11:50;;;;;;;;;1.67;1.67;;;;;34.70;26.67;101208.75;5076975;28;45506;-71
2023/07/19 07:14:15;;;;;;;;;1.67;1.67;;;;;34.86;26.86;101203.09;5076218;28;45774;-73
2023/07/19 07:16:41;;;;;;;;;3.00;1.33;;;;;35.12;26.01;101212.69;5076375;28;45527;-72
2023/07/19 07:19:06;;;;;;;;;2.00;1.00;;;;;35.24;25.58;101198.41;5073349;28;45291;-72
2023/07/19 07:21:31;;;;;;;;;0.33;0.33;;;;;35.43;25.50;101217.78;5076631;28;45481;-72
2023/07/19 07:23:57;;;;;;;;;1.00;1.00;;;;;35.30;25.70;101214.63;5076178;28;45700;-72
2023/07/19 07:26:22;;;;;;;;;1.00;1.00;;;;;35.56;25.73;101203.22;5076152;28;45479;-71
2023/07/19 07:28:48;;;;;;;;;0.00;0.00;;;;;35.88;25.51;101211.59;5076420;28;45503;-71
2023/07/19 07:31:13;;;;;;;;;1.00;0.00;;;;;36.17;24.76;101218.81;5077228;27;45399;-71
2023/07/19 07:33:39;;;;;;;;;0.33;0.00;;;;;36.33;24.82;101214.69;5076704;28;45760;-74
2023/07/19 07:36:04;;;;;;;;;0.00;0.00;;;;;36.52;24.81;101218.19;5076299;28;45407;-72
2023/07/19 07:38:30;;;;;;;;;2.00;2.00;;;;;36.75;24.16;101208.03;5076425;28;45316;-70
2023/07/19 07:41:02;;;;;;;;;0.33;0.00;;;;;36.64;24.22;101167.81;5076415;28;45462;-72
2023/07/19 07:43:31;;;;;;;;;5.67;4.33;;;;;36.89;24.02;101219.16;5076095;28;45540;-73
2023/07/19 07:45:57;;;;;;;;;0.67;0.67;;;;;36.60;24.28;101222.19;5079093;28;45277;-73
2023/07/19 07:48:23;;;;;;;;;1.00;1.00;;;;;36.56;25.05;101227.53;5078247;28;45287;-72
2023/07/19 07:50:51;;;;;;;;;1.00;1.00;;;;;36.41;24.46;101230.59;5061343;28;45178;-74
2023/07/19 07:53:19;;;;;;;;;1.00;1.00;;;;;36.28;24.60;101214.75;5079297;28;46526;-72
2023/07/19 07:55:45;;;;;;;;;0.00;0.00;;;;;36.40;24.51;101222.59;5079050;28;45499;-72
2023/07/19 07:58:11;;;;;;;;;1.00;1.00;;;;;36.16;24.12;101223.53;5073156;28;45547;-73
2023/07/19 08:00:37;;;;;;;;;0.00;0.00;;;;;35.46;25.36;101225.50;5062125;28;45445;-73
2023/07/19 08:03:02;;;;;;;;;0.00;0.00;;;;;34.77;25.77;101220.25;5078819;28;45398;-73
2023/07/19 08:05:29;;;;;;;;;3.00;2.00;;;;;34.23;26.61;101225.22;5077691;27;46102;-73
2023/07/19 08:07:54;;;;;;;;;1.00;1.00;;;;;33.79;27.00;101231.66;5066139;28;45485;-72
2023/07/19 08:10:19;;;;;;;;;1.00;1.00;;;;;33.35;27.65;101227.00;5066984;28;45533;-72
2023/07/19 08:12:45;;;;;;;;;0.67;0.67;;;;;33.03;27.13;101210.03;5073212;28;46423;-71
2023/07/19 08:15:10;;;;;;;;;1.67;1.67;;;;;32.65;28.06;101201.38;5078293;28;45326;-74
2023/07/19 08:17:36;;;;;;;;;1.00;1.00;;;;;32.05;28.19;101156.34;5079109;28;45514;-73
2023/07/19 08:20:05;;;;;;;;;1.00;1.00;;;;;31.93;28.34;101216.28;5060881;28;45474;-72
2023/07/19 08:22:33;;;;;;;;;0.33;0.33;;;;;31.36;28.91;101173.31;5078885;28;47413;-71
2023/07/19 08:24:58;;;;;;;;;0.00;0.00;;;;;31.33;29.15;101207.66;5061122;28;45335;-73
2023/07/19 08:27:24;;;;;;;;;0.67;0.67;;;;;31.08;29.44;101182.84;5079124;28;45336;-72
2023/07/19 08:29:51;;;;;;;;;1.67;1.67;;;;;31.16;29.40;101207.03;5079501;28;46415;-74
2023/07/19 08:32:16;;;;;;;;;0.00;0.00;;;;;30.95;29.69;101221.78;5076513;28;45822;-73
2023/07/19 08:34:42;;;;;;;;;3.33;3.00;;;;;30.71;30.46;101226.88;5078831;27;45343;-71
2023/07/19 08:37:07;;;;;;;;;1.67;1.67;;;;;30.50;30.07;101221.25;5065721;28;45478;-72
2023/07/19 08:39:33;;;;;;;;;1.67;1.67;;;;;30.39;30.95;101230.50;5058778;28;45325;-72
2023/07/19 08:42:01;;;;;;;;;4.33;4.33;;;;;30.12;30.68;101219.59;5057963;28;46272;-70
2023/07/19 08:44:28;;;;;;;;;2.00;2.00;;;;;30.30;31.10;101226.59;5064914;28;45489;-72
2023/07/19 08:46:55;;;;;;;;;2.00;2.00;;;;;30.26;30.88;101212.59;5078757;27;45418;-72
2023/07/19 08:49:20;;;;;;;;;1.33;1.00;;;;;30.29;30.85;101213.97;5078458;28;45546;-72
2023/07/19 08:51:46;;;;;;;;;5.00;2.00;;;;;29.96;31.29;101195.84;5077964;27;46410;-71
2023/07/19 08:54:12;;;;;;;;;2.33;2.33;;;;;29.92;31.11;101225.72;5074589;28;45554;-72
2023/07/19 08:56:38;;;;;;;;;2.33;2.00;;;;;29.87;30.87;101225.69;5044993;28;45376;-77
2023/07/19 08:59:06;;;;;;;;;3.67;3.33;;;;;29.79;31.72;101220.66;5072789;27;45465;-72
2023/07/19 09:01:31;;;;;;;;;1.00;1.00;;;;;29.76;32.03;101217.59;5064831;27;46613;-73
2023/07/19 09:03:57;;;;;;;;;2.33;2.33;;;;;29.56;31.36;101216.31;5068221;28;45436;-71
2023/07/19 09:06:30;;;;;;;;;2.33;2.33;;;;;29.34;31.89;101208.13;5066883;28;45228;-74
2023/07/19 09:08:55;;;;;;;;;4.00;2.67;;;;;29.24;31.62;101218.97;5076427;28;45614;-72
2023/07/19 09:11:24;;;;;;;;;1.67;1.00;;;;;29.12;31.89;101215.53;5071986;28;46440;-73
2023/07/19 09:13:54;;;;;;;;;1.00;1.00;;;;;28.97;32.46;101224.38;5068591;28;45510;-71
2023/07/19 09:16:31;;;;;;;;;0.33;0.33;;;;;28.87;31.81;101213.31;5069224;28;45208;-75
2023/07/19 09:18:57;;;;;;;;;2.33;2.00;;;;;28.86;32.37;101195.25;5069852;27;45577;-73
2023/07/19 09:21:50;;;;;;;;;1.67;1.67;;;;;29.04;31.32;101216.00;5074205;28;45690;-75
2023/07/19 09:24:15;;;;;;;;;2.00;1.67;;;;;29.08;32.53;101217.97;5061110;28;45242;-79
2023/07/19 09:26:52;;;;;;;;;2.00;2.00;;;;;29.06;31.67;101151.69;5059480;28;45391;-76
2023/07/19 09:29:19;;;;;;;;;1.00;1.00;;;;;29.43;30.51;101189.31;5052166;28;45469;-75
2023/07/19 09:32:03;;;;;;;;;3.67;1.67;;;;;29.65;30.20;101205.75;5066820;28;46137;-72
2023/07/19 09:34:35;;;;;;;;;2.00;2.00;;;;;29.54;30.35;101215.75;5066779;28;45529;-76
2023/07/19 09:37:01;;;;;;;;;2.67;2.67;;;;;29.33;30.67;101192.78;5054506;28;45328;-76
2023/07/19 09:39:28;;;;;;;;;2.00;2.00;;;;;29.69;29.80;101209.63;5069129;27;45436;-72
2023/07/19 09:41:54;;;;;;;;;2.33;2.00;;;;;29.67;29.75;101195.34;5077320;28;45634;-73
2023/07/19 09:44:21;;;;;;;;;2.33;2.00;;;;;29.70;29.80;101219.47;5059308;28;45401;-74
2023/07/19 09:46:47;;;;;;;;;2.67;2.00;;;;;29.36;29.68;101184.03;5042945;28;45417;-75
2023/07/19 09:49:13;;;;;;;;;2.33;1.00;;;;;29.42;30.05;101219.69;5045653;28;45547;-74
2023/07/19 09:51:41;;;;;;;;;2.00;2.00;;;;;29.34;30.31;101224.56;5066073;28;46469;-72
2023/07/19 09:54:09;;;;;;;;;4.00;2.00;;;;;28.95;31.15;101144.44;5040444;28;45579;-72
2023/07/19 09:56:35;;;;;;;;;1.00;1.00;;;;;29.46;30.34;101218.97;5057137;28;45412;-73
2023/07/19 09:59:03;;;;;;;;;2.33;2.33;;;;;28.87;30.61;101135.88;5071498;28;45487;-74
2023/07/19 10:01:29;;;;;;;;;2.00;2.00;;;;;29.20;31.07;101195.09;5071688;28;46655;-75
2023/07/19 10:03:58;;;;;;;;;1.67;1.00;;;;;28.79;30.91;101157.06;5077597;28;45527;-74
2023/07/19 10:06:35;;;;;;;;;2.00;2.00;;;;;29.00;31.45;101220.31;5068411;28;45327;-73
2023/07/19 10:09:29;;;;;;;;;1.00;1.00;;;;;28.84;31.84;101212.97;5054901;28;45357;-77
2023/07/19 10:12:05;;;;;;;;;1.33;1.33;;;;;28.86;31.65;101211.66;5053698;28;48184;-71
2023/07/19 10:14:32;;;;;;;;;4.00;2.33;;;;;28.98;31.63;101215.09;5072775;28;45388;-72
2023/07/19 10:16:59;;;;;;;;;2.00;1.00;;;;;29.05;31.17;101209.44;5074441;27;45616;-72
2023/07/19 10:19:25;;;;;;;;;2.00;2.00;;;;;29.05;30.90;101214.91;5073652;28;45624;-72
2023/07/19 10:22:07;;;;;;;;;2.00;2.00;;;;;29.03;30.97;101206.97;5076083;28;45581;-73
2023/07/19 10:24:36;;;;;;;;;1.00;1.00;;;;;28.92;31.53;101215.28;5073621;28;45979;-72
2023/07/19 10:27:04;;;;;;;;;3.00;1.33;;;;;28.53;31.76;101174.25;5053545;28;45400;-72
2023/07/19 10:29:39;;;;;;;;;4.00;3.00;;;;;28.72;31.54;101224.84;5071139;28;45575;-73
2023/07/19 10:32:05;;;;;;;;;5.33;5.00;;;;;28.53;31.48;101192.56;5071060;27;46149;-75
2023/07/19 10:34:31;;;;;;;;;3.00;2.00;;;;;28.63;31.32;101217.31;5071532;28;45728;-71
2023/07/19 10:37:02;;;;;;;;;1.67;1.67;;;;;28.55;31.56;101231.44;5071945;28;45344;-73
2023/07/19 10:39:28;;;;;;;;;4.00;3.00;;;;;28.49;30.78;101233.28;5074760;28;45637;-72
2023/07/19 10:41:53;;;;;;;;;3.33;2.33;;;;;28.06;30.74;101160.97;5074809;28;46364;-73
2023/07/19 10:44:21;;;;;;;;;2.00;2.00;;;;;28.41;31.04;101220.00;5076561;28;45304;-73
2023/07/19 10:46:46;;;;;;;;;3.00;3.00;;;;;28.40;30.93;101221.09;5077159;27;45160;-73
2023/07/19 10:49:12;;;;;;;;;3.00;3.00;;;;;28.26;31.22;101219.81;5077657;28;45559;-72
2023/07/19 10:51:37;;;;;;;;;3.33;3.33;;;;;28.15;31.47;101225.06;5076491;28;46106;-72
2023/07/19 10:54:03;;;;;;;;;3.00;3.00;;;;;28.02;31.57;101217.19;5059143;28;46322;-72
2023/07/19 10:56:29;;;;;;;;;1.00;1.00;;;;;27.90;31.43;101224.66;5076615;28;45787;-72
2023/07/19 10:58:58;;;;;;;;;4.33;4.00;;;;;27.88;31.12;101227.63;5077192;27;45387;-72
2023/07/19 11:01:26;;;;;;;;;3.00;3.00;;;;;27.90;31.47;101227.38;5076626;27;46043;-73
2023/07/19 11:03:51;;;;;;;;;2.67;2.67;;;;;27.85;31.91;101221.84;5076974;28;45269;-73
2023/07/19 11:06:16;;;;;;;;;8.67;8.67;;;;;27.86;31.43;101223.50;5076812;28;45414;-73
2023/07/19 11:08:44;;;;;;;;;4.00;1.00;;;;;27.77;32.16;101230.41;5058453;28;45264;-72
2023/07/19 11:11:13;;;;;;;;;2.00;2.00;;;;;27.63;31.95;101221.69;5076289;28;47575;-72
2023/07/19 11:13:38;;;;;;;;;2.33;2.33;;;;;27.59;31.90;101190.44;5076632;28;45209;-72
2023/07/19 11:16:04;;;;;;;;;2.00;2.00;;;;;27.40;32.23;101165.25;5076807;28;45252;-74
2023/07/19 11:18:35;;;;;;;;;1.00;1.00;;;;;27.62;31.64;101194.59;5077029;27;45450;-75
2023/07/19 11:21:01;;;;;;;;;3.00;3.00;;;;;27.84;31.80;101211.97;5080344;28;47044;-72